This is the latest recevied weather packets stored in our database for station/object N9WHM. If no packets are shown the sender has not sent any weather packets the latest 10 day(s).
| Time | Temp. | Humidity | Pressure | Rain* | Wind** | Luminosity | Snow |
|---|---|---|---|---|---|---|---|
| 1777625843 | 3.33° C | 71% | 1017.5 hPa | 0 mm | - | 0 W/m² | - |
| 1777625539 | 3.33° C | 70% | 1017.4 hPa | 0 mm | - | 0 W/m² | - |
| 1777625234 | 3.33° C | 71% | 1017.3 hPa | 0 mm | - | 0 W/m² | - |
| 1777624931 | 3.33° C | 71% | 1017.4 hPa | 0 mm | - | 0 W/m² | - |
| 1777624628 | 3.33° C | 71% | 1017.3 hPa | 0 mm | - | 0 W/m² | - |
| 1777624328 | 3.89° C | 71% | 1017.4 hPa | 0 mm | - | 0 W/m² | - |
| 1777624026 | 3.89° C | 70% | 1017.4 hPa | 0 mm | - | 0 W/m² | - |
| 1777623723 | 3.89° C | 70% | 1017.2 hPa | 0 mm | - | 0 W/m² | - |
| 1777623419 | 3.33° C | 72% | 1017.2 hPa | 0 mm | - | 0 W/m² | - |
| 1777623116 | 3.33° C | 74% | 1017.2 hPa | 0 mm | - | 0 W/m² | - |
| 1777622814 | 2.78° C | 75% | 1017.3 hPa | 0 mm | - | 0 W/m² | - |
| 1777622510 | 3.33° C | 75% | 1017.5 hPa | 0 mm | - | 0 W/m² | - |
| 1777622208 | 3.89° C | 72% | 1017.3 hPa | 0 mm | - | 0 W/m² | - |
| 1777621903 | 3.33° C | 73% | 1017.5 hPa | 0 mm | - | 0 W/m² | - |
| 1777621598 | 3.33° C | 76% | 1017.3 hPa | 0 mm | - | 0 W/m² | - |
| 1777621296 | 3.33° C | 74% | 1017.4 hPa | 0 mm | - | 0 W/m² | - |
| 1777620992 | 3.89° C | 74% | 1017.7 hPa | 0 mm | - | 0 W/m² | - |
| 1777620688 | 4.44° C | 71% | 1017.5 hPa | 0 mm | - | 0 W/m² | - |
| 1777620384 | 4.44° C | 70% | 1017.9 hPa | 0 mm | - | 0 W/m² | - |
| 1777620081 | 4.44° C | 72% | 1018 hPa | 0 mm | - | 0 W/m² | - |
| 1777619771 | 3.89° C | 73% | 1017.6 hPa | 0 mm | - | 0 W/m² | - |
| 1777619466 | 4.44° C | 73% | 1018 hPa | 0 mm | - | 0 W/m² | - |
| 1777619155 | 4.44° C | 73% | 1017.9 hPa | 0 mm | - | 0 W/m² | - |
| 1777618850 | 5° C | 71% | 1018.2 hPa | 0 mm | - | 0 W/m² | - |
| 1777618545 | 5.56° C | 68% | 1018 hPa | 0 mm | - | 0 W/m² | - |
* Rain latest hour (hover to see other rain measurements)
** Current wind speed in m/s (hover to see current wind gust speed)